sensor_id;sensor_type;location;lat;lon;timestamp;pressure;altitude;pressure_sealevel;temperature;humidity
49841;BME280;35738;49.890;5.930;2022-08-21T00:01:36;95966.56;;;13.93;65.59
49841;BME280;35738;49.890;5.930;2022-08-21T00:04:07;95954.13;;;13.99;65.34
49841;BME280;35738;49.890;5.930;2022-08-21T00:06:34;95945.38;;;13.97;65.62
49841;BME280;35738;49.890;5.930;2022-08-21T00:09:03;95945.72;;;13.95;65.73
49841;BME280;35738;49.890;5.930;2022-08-21T00:11:33;95955.75;;;13.88;66.10
49841;BME280;35738;49.890;5.930;2022-08-21T00:14:02;95955.53;;;13.81;66.28
49841;BME280;35738;49.890;5.930;2022-08-21T00:16:29;95953.25;;;13.71;66.90
49841;BME280;35738;49.890;5.930;2022-08-21T00:18:56;95946.56;;;13.72;66.83
49841;BME280;35738;49.890;5.930;2022-08-21T00:21:23;95944.28;;;13.74;67.08
49841;BME280;35738;49.890;5.930;2022-08-21T00:23:51;95951.41;;;13.75;66.36
49841;BME280;35738;49.890;5.930;2022-08-21T00:26:18;95949.09;;;13.77;66.56
49841;BME280;35738;49.890;5.930;2022-08-21T00:28:45;95949.91;;;13.77;66.39
49841;BME280;35738;49.890;5.930;2022-08-21T00:31:12;95950.00;;;13.81;66.91
49841;BME280;35738;49.890;5.930;2022-08-21T00:33:39;95945.19;;;13.78;66.45
49841;BME280;35738;49.890;5.930;2022-08-21T00:36:05;95945.41;;;13.73;67.10
49841;BME280;35738;49.890;5.930;2022-08-21T00:38:32;95942.78;;;13.76;66.87
49841;BME280;35738;49.890;5.930;2022-08-21T00:41:02;95938.75;;;13.74;66.54
49841;BME280;35738;49.890;5.930;2022-08-21T00:43:49;95941.75;;;13.68;67.15
49841;BME280;35738;49.890;5.930;2022-08-21T00:46:17;95945.66;;;13.67;67.04
49841;BME280;35738;49.890;5.930;2022-08-21T00:48:44;95950.72;;;13.65;67.55
49841;BME280;35738;49.890;5.930;2022-08-21T00:51:14;95948.78;;;13.66;67.62
49841;BME280;35738;49.890;5.930;2022-08-21T00:53:43;95940.59;;;13.70;66.96
49841;BME280;35738;49.890;5.930;2022-08-21T00:56:20;95943.13;;;13.75;67.11
49841;BME280;35738;49.890;5.930;2022-08-21T00:58:48;95949.22;;;13.80;66.98
49841;BME280;35738;49.890;5.930;2022-08-21T01:01:20;95946.56;;;13.84;66.26
49841;BME280;35738;49.890;5.930;2022-08-21T01:03:47;95939.41;;;13.83;66.39
49841;BME280;35738;49.890;5.930;2022-08-21T01:06:16;95940.78;;;13.89;65.98
49841;BME280;35738;49.890;5.930;2022-08-21T01:08:43;95943.91;;;13.87;65.75
49841;BME280;35738;49.890;5.930;2022-08-21T01:11:14;95938.59;;;13.82;65.84
49841;BME280;35738;49.890;5.930;2022-08-21T01:13:41;95936.41;;;13.88;65.38
49841;BME280;35738;49.890;5.930;2022-08-21T01:16:15;95941.59;;;13.89;65.94
49841;BME280;35738;49.890;5.930;2022-08-21T01:18:44;95941.03;;;13.84;65.73
49841;BME280;35738;49.890;5.930;2022-08-21T01:21:20;95930.78;;;13.84;66.10
49841;BME280;35738;49.890;5.930;2022-08-21T01:23:49;95935.13;;;13.97;65.82
49841;BME280;35738;49.890;5.930;2022-08-21T01:26:20;95933.81;;;14.07;65.26
49841;BME280;35738;49.890;5.930;2022-08-21T01:28:57;95929.56;;;14.10;64.23
49841;BME280;35738;49.890;5.930;2022-08-21T01:31:27;95927.38;;;14.15;64.69
49841;BME280;35738;49.890;5.930;2022-08-21T01:33:55;95936.22;;;14.21;64.27
49841;BME280;35738;49.890;5.930;2022-08-21T01:36:23;95929.19;;;14.23;64.42
49841;BME280;35738;49.890;5.930;2022-08-21T01:38:50;95933.31;;;14.29;63.57
49841;BME280;35738;49.890;5.930;2022-08-21T01:41:17;95924.91;;;14.26;63.72
49841;BME280;35738;49.890;5.930;2022-08-21T01:43:44;95914.69;;;14.14;63.88
49841;BME280;35738;49.890;5.930;2022-08-21T01:46:12;95927.38;;;14.03;64.37
49841;BME280;35738;49.890;5.930;2022-08-21T01:48:39;95921.63;;;13.96;64.43
49841;BME280;35738;49.890;5.930;2022-08-21T01:51:07;95923.03;;;13.90;65.50
49841;BME280;35738;49.890;5.930;2022-08-21T01:53:35;95912.69;;;13.87;64.63
49841;BME280;35738;49.890;5.930;2022-08-21T01:56:05;95917.31;;;13.83;64.76
49841;BME280;35738;49.890;5.930;2022-08-21T01:58:40;95915.59;;;13.78;65.12
49841;BME280;35738;49.890;5.930;2022-08-21T02:01:08;95911.09;;;13.74;65.48
49841;BME280;35738;49.890;5.930;2022-08-21T02:03:36;95920.09;;;13.71;64.87
49841;BME280;35738;49.890;5.930;2022-08-21T02:06:05;95908.00;;;13.75;64.46
49841;BME280;35738;49.890;5.930;2022-08-21T02:08:34;95912.25;;;13.73;64.47
49841;BME280;35738;49.890;5.930;2022-08-21T02:11:00;95914.91;;;13.69;65.26
49841;BME280;35738;49.890;5.930;2022-08-21T02:13:27;95910.44;;;13.64;65.34
49841;BME280;35738;49.890;5.930;2022-08-21T02:15:54;95906.06;;;13.63;65.64
49841;BME280;35738;49.890;5.930;2022-08-21T02:18:20;95904.22;;;13.55;65.94
49841;BME280;35738;49.890;5.930;2022-08-21T02:20:48;95907.13;;;13.47;66.17
49841;BME280;35738;49.890;5.930;2022-08-21T02:23:21;95899.88;;;13.42;66.67
49841;BME280;35738;49.890;5.930;2022-08-21T02:26:00;95897.81;;;13.39;67.24
49841;BME280;35738;49.890;5.930;2022-08-21T02:28:29;95900.06;;;13.37;67.24
49841;BME280;35738;49.890;5.930;2022-08-21T02:30:56;95896.41;;;13.33;67.11
49841;BME280;35738;49.890;5.930;2022-08-21T02:33:25;95892.25;;;13.27;67.07
49841;BME280;35738;49.890;5.930;2022-08-21T02:35:52;95888.47;;;13.19;67.38
49841;BME280;35738;49.890;5.930;2022-08-21T02:38:23;95888.09;;;13.09;67.94
49841;BME280;35738;49.890;5.930;2022-08-21T02:40:52;95887.41;;;12.99;68.13
49841;BME280;35738;49.890;5.930;2022-08-21T02:43:21;95887.53;;;12.91;68.34
49841;BME280;35738;49.890;5.930;2022-08-21T02:45:49;95892.47;;;12.85;69.13
49841;BME280;35738;49.890;5.930;2022-08-21T02:48:20;95888.31;;;12.79;69.09
49841;BME280;35738;49.890;5.930;2022-08-21T02:50:50;95892.44;;;12.73;69.17
49841;BME280;35738;49.890;5.930;2022-08-21T02:53:18;95897.16;;;12.72;69.52
49841;BME280;35738;49.890;5.930;2022-08-21T02:55:46;95893.94;;;12.70;70.15
49841;BME280;35738;49.890;5.930;2022-08-21T02:58:17;95900.03;;;12.76;70.09
49841;BME280;35738;49.890;5.930;2022-08-21T03:00:44;95895.44;;;12.80;69.89
49841;BME280;35738;49.890;5.930;2022-08-21T03:03:11;95901.09;;;12.84;69.76
49841;BME280;35738;49.890;5.930;2022-08-21T03:05:41;95900.97;;;12.92;69.29
49841;BME280;35738;49.890;5.930;2022-08-21T03:08:10;95901.91;;;12.96;69.22
49841;BME280;35738;49.890;5.930;2022-08-21T03:10:43;95900.06;;;13.00;69.40
49841;BME280;35738;49.890;5.930;2022-08-21T03:13:11;95902.34;;;12.98;69.00
49841;BME280;35738;49.890;5.930;2022-08-21T03:15:38;95898.69;;;12.94;68.99
49841;BME280;35738;49.890;5.930;2022-08-21T03:18:07;95897.28;;;12.88;68.45
49841;BME280;35738;49.890;5.930;2022-08-21T03:20:34;95891.53;;;12.81;69.17
49841;BME280;35738;49.890;5.930;2022-08-21T03:23:02;95894.84;;;12.75;69.87
49841;BME280;35738;49.890;5.930;2022-08-21T03:25:38;95891.97;;;12.71;69.72
49841;BME280;35738;49.890;5.930;2022-08-21T03:28:09;95889.09;;;12.67;69.82
49841;BME280;35738;49.890;5.930;2022-08-21T03:30:42;95889.44;;;12.66;69.58
49841;BME280;35738;49.890;5.930;2022-08-21T03:33:10;95907.34;;;12.60;69.80
49841;BME280;35738;49.890;5.930;2022-08-21T03:35:45;95898.59;;;12.58;70.83
49841;BME280;35738;49.890;5.930;2022-08-21T03:38:13;95899.88;;;12.60;70.17
49841;BME280;35738;49.890;5.930;2022-08-21T03:40:41;95910.25;;;12.63;70.58
49841;BME280;35738;49.890;5.930;2022-08-21T03:43:08;95901.75;;;12.68;70.55
49841;BME280;35738;49.890;5.930;2022-08-21T03:45:36;95900.03;;;12.76;70.14
49841;BME280;35738;49.890;5.930;2022-08-21T03:48:04;95900.84;;;12.77;70.03
49841;BME280;35738;49.890;5.930;2022-08-21T03:50:36;95901.09;;;12.84;70.32
49841;BME280;35738;49.890;5.930;2022-08-21T03:53:10;95889.00;;;13.00;69.52
49841;BME280;35738;49.890;5.930;2022-08-21T03:55:44;95891.91;;;13.04;69.60
49841;BME280;35738;49.890;5.930;2022-08-21T03:58:13;95908.34;;;13.00;70.07
49841;BME280;35738;49.890;5.930;2022-08-21T04:00:43;95900.06;;;13.00;70.07
49841;BME280;35738;49.890;5.930;2022-08-21T04:03:10;95905.59;;;13.00;69.47
49841;BME280;35738;49.890;5.930;2022-08-21T04:05:36;95899.25;;;12.88;70.43
49841;BME280;35738;49.890;5.930;2022-08-21T04:08:05;95903.13;;;12.75;71.22
49841;BME280;35738;49.890;5.930;2022-08-21T04:10:35;95902.56;;;12.81;71.46
49841;BME280;35738;49.890;5.930;2022-08-21T04:13:03;95893.16;;;12.82;71.12
49841;BME280;35738;49.890;5.930;2022-08-21T04:15:30;95903.94;;;12.75;71.04
49841;BME280;35738;49.890;5.930;2022-08-21T04:17:57;95911.78;;;12.97;70.72
49841;BME280;35738;49.890;5.930;2022-08-21T04:20:26;95906.53;;;13.17;69.93
49841;BME280;35738;49.890;5.930;2022-08-21T04:22:53;95906.75;;;13.24;69.73
49841;BME280;35738;49.890;5.930;2022-08-21T04:25:21;95909.88;;;13.22;69.59
49841;BME280;35738;49.890;5.930;2022-08-21T04:27:49;95909.41;;;13.20;69.74
49841;BME280;35738;49.890;5.930;2022-08-21T04:30:16;95906.75;;;13.24;69.35
49841;BME280;35738;49.890;5.930;2022-08-21T04:32:45;95910.81;;;13.39;68.56
49841;BME280;35738;49.890;5.930;2022-08-21T04:35:13;95913.56;;;13.39;68.68
49841;BME280;35738;49.890;5.930;2022-08-21T04:37:40;95911.72;;;13.30;68.28
49841;BME280;35738;49.890;5.930;2022-08-21T04:40:10;95921.59;;;13.31;68.27
49841;BME280;35738;49.890;5.930;2022-08-21T04:42:48;95923.44;;;13.27;68.40
49841;BME280;35738;49.890;5.930;2022-08-21T04:47:49;95924.56;;;13.14;69.12
49841;BME280;35738;49.890;5.930;2022-08-21T04:50:20;95921.72;;;13.23;68.42
49841;BME280;35738;49.890;5.930;2022-08-21T04:52:48;95916.78;;;13.41;67.85
49841;BME280;35738;49.890;5.930;2022-08-21T04:55:17;95915.97;;;13.52;67.10
49841;BME280;35738;49.890;5.930;2022-08-21T04:57:45;95921.72;;;13.59;67.30
49841;BME280;35738;49.890;5.930;2022-08-21T05:00:16;95915.97;;;13.64;66.92
49841;BME280;35738;49.890;5.930;2022-08-21T05:02:45;95922.16;;;13.74;66.99
49841;BME280;35738;49.890;5.930;2022-08-21T05:05:15;95927.00;;;13.77;66.16
49841;BME280;35738;49.890;5.930;2022-08-21T05:07:42;95915.59;;;13.78;65.98
49841;BME280;35738;49.890;5.930;2022-08-21T05:10:12;95917.66;;;13.81;66.52
49841;BME280;35738;49.890;5.930;2022-08-21T05:12:40;95919.97;;;13.79;67.19
49841;BME280;35738;49.890;5.930;2022-08-21T05:15:10;95920.53;;;13.73;67.24
49841;BME280;35738;49.890;5.930;2022-08-21T05:17:40;95915.03;;;13.73;67.35
49841;BME280;35738;49.890;5.930;2022-08-21T05:20:09;95921.94;;;13.66;67.91
49841;BME280;35738;49.890;5.930;2022-08-21T05:22:36;95923.34;;;13.60;67.87
49841;BME280;35738;49.890;5.930;2022-08-21T05:25:04;95915.16;;;13.52;68.15
49841;BME280;35738;49.890;5.930;2022-08-21T05:27:36;95923.69;;;13.47;68.64
49841;BME280;35738;49.890;5.930;2022-08-21T05:30:07;95930.94;;;13.51;68.54
49841;BME280;35738;49.890;5.930;2022-08-21T05:32:35;95923.22;;;13.57;68.11
49841;BME280;35738;49.890;5.930;2022-08-21T05:35:05;95929.78;;;13.64;68.44
49841;BME280;35738;49.890;5.930;2022-08-21T05:37:32;95930.34;;;13.70;68.90
49841;BME280;35738;49.890;5.930;2022-08-21T05:39:59;95931.56;;;13.85;68.48
49841;BME280;35738;49.890;5.930;2022-08-21T05:42:46;95928.47;;;14.26;66.82
49841;BME280;35738;49.890;5.930;2022-08-21T05:45:27;95914.69;;;14.70;65.70
49841;BME280;35738;49.890;5.930;2022-08-21T05:48:21;95912.19;;;15.75;64.33
49841;BME280;35738;49.890;5.930;2022-08-21T05:50:49;95916.41;;;16.81;60.72
49841;BME280;35738;49.890;5.930;2022-08-21T05:53:18;95910.63;;;17.36;57.70
49841;BME280;35738;49.890;5.930;2022-08-21T05:55:45;95921.81;;;17.17;57.48
49841;BME280;35738;49.890;5.930;2022-08-21T05:58:14;95911.88;;;17.65;56.90
49841;BME280;35738;49.890;5.930;2022-08-21T06:00:42;95911.59;;;17.96;55.83
49841;BME280;35738;49.890;5.930;2022-08-21T06:03:14;95907.44;;;18.43;55.28
49841;BME280;35738;49.890;5.930;2022-08-21T06:05:43;95917.25;;;18.97;53.79
49841;BME280;35738;49.890;5.930;2022-08-21T06:08:10;95917.72;;;19.06;53.10
49841;BME280;35738;49.890;5.930;2022-08-21T06:10:37;95909.78;;;19.49;52.13
49841;BME280;35738;49.890;5.930;2022-08-21T06:13:04;95910.53;;;19.42;51.84
49841;BME280;35738;49.890;5.930;2022-08-21T06:15:32;95902.94;;;19.94;51.16
49841;BME280;35738;49.890;5.930;2022-08-21T06:17:59;95907.16;;;20.32;51.12
49841;BME280;35738;49.890;5.930;2022-08-21T06:20:26;95912.28;;;20.19;51.19
49841;BME280;35738;49.890;5.930;2022-08-21T06:22:53;95907.50;;;20.20;50.58
49841;BME280;35738;49.890;5.930;2022-08-21T06:25:20;95904.72;;;20.20;51.37
49841;BME280;35738;49.890;5.930;2022-08-21T06:27:46;95903.13;;;20.19;51.67
49841;BME280;35738;49.890;5.930;2022-08-21T06:30:13;95906.75;;;20.26;50.45
49841;BME280;35738;49.890;5.930;2022-08-21T06:32:40;95901.38;;;20.73;50.00
49841;BME280;35738;49.890;5.930;2022-08-21T06:35:07;95897.81;;;20.83;49.62
49841;BME280;35738;49.890;5.930;2022-08-21T06:37:34;95900.25;;;20.99;48.26
49841;BME280;35738;49.890;5.930;2022-08-21T06:40:02;95901.03;;;20.85;49.51
49841;BME280;35738;49.890;5.930;2022-08-21T06:42:29;95905.34;;;19.95;51.47
49841;BME280;35738;49.890;5.930;2022-08-21T06:44:57;95900.53;;;19.89;51.57
49841;BME280;35738;49.890;5.930;2022-08-21T06:47:24;95904.19;;;20.00;51.69
49841;BME280;35738;49.890;5.930;2022-08-21T06:49:50;95906.31;;;20.21;50.76
49841;BME280;35738;49.890;5.930;2022-08-21T06:52:17;95911.56;;;20.33;49.78
49841;BME280;35738;49.890;5.930;2022-08-21T06:54:44;95923.22;;;20.49;49.34
49841;BME280;35738;49.890;5.930;2022-08-21T06:57:10;95917.41;;;20.07;50.41
49841;BME280;35738;49.890;5.930;2022-08-21T06:59:37;95921.72;;;19.05;52.42
49841;BME280;35738;49.890;5.930;2022-08-21T07:02:04;95915.69;;;18.62;54.71
49841;BME280;35738;49.890;5.930;2022-08-21T07:04:31;95931.94;;;18.94;53.14
49841;BME280;35738;49.890;5.930;2022-08-21T07:06:57;95923.31;;;19.06;52.71
49841;BME280;35738;49.890;5.930;2022-08-21T07:09:24;95934.88;;;19.08;52.98
49841;BME280;35738;49.890;5.930;2022-08-21T07:11:53;95926.53;;;18.71;53.31
49841;BME280;35738;49.890;5.930;2022-08-21T07:14:21;95930.56;;;18.17;55.43
49841;BME280;35738;49.890;5.930;2022-08-21T07:16:49;95935.66;;;18.12;55.28
49841;BME280;35738;49.890;5.930;2022-08-21T07:19:17;95940.19;;;17.93;55.85
49841;BME280;35738;49.890;5.930;2022-08-21T07:21:44;95931.59;;;18.05;55.65
49841;BME280;35738;49.890;5.930;2022-08-21T07:24:11;95933.00;;;17.92;56.25
49841;BME280;35738;49.890;5.930;2022-08-21T07:26:37;95921.03;;;17.88;56.10
49841;BME280;35738;49.890;5.930;2022-08-21T07:29:04;95925.28;;;17.82;56.20
49841;BME280;35738;49.890;5.930;2022-08-21T07:31:31;95931.31;;;17.84;56.37
49841;BME280;35738;49.890;5.930;2022-08-21T07:33:58;95926.88;;;17.83;56.35
49841;BME280;35738;49.890;5.930;2022-08-21T07:36:25;95926.03;;;17.79;56.91
49841;BME280;35738;49.890;5.930;2022-08-21T07:38:52;95935.78;;;17.92;55.35
49841;BME280;35738;49.890;5.930;2022-08-21T07:41:22;95932.63;;;17.94;55.27
49841;BME280;35738;49.890;5.930;2022-08-21T07:43:49;95933.44;;;17.94;55.56
49841;BME280;35738;49.890;5.930;2022-08-21T07:46:18;95945.41;;;17.98;55.24
49841;BME280;35738;49.890;5.930;2022-08-21T07:48:45;95933.53;;;18.01;54.60
49841;BME280;35738;49.890;5.930;2022-08-21T07:51:13;95935.69;;;17.85;55.35
49841;BME280;35738;49.890;5.930;2022-08-21T07:53:41;95938.56;;;17.92;56.01
49841;BME280;35738;49.890;5.930;2022-08-21T07:56:08;95939.31;;;18.16;56.26
49841;BME280;35738;49.890;5.930;2022-08-21T07:58:35;95929.69;;;18.09;55.21
49841;BME280;35738;49.890;5.930;2022-08-21T08:01:01;95934.69;;;18.27;54.11
49841;BME280;35738;49.890;5.930;2022-08-21T08:03:28;95933.97;;;18.33;53.87
49841;BME280;35738;49.890;5.930;2022-08-21T08:05:56;95943.44;;;18.29;54.47
49841;BME280;35738;49.890;5.930;2022-08-21T08:08:23;95939.31;;;18.16;54.45
49841;BME280;35738;49.890;5.930;2022-08-21T08:10:52;95924.81;;;18.33;53.97
49841;BME280;35738;49.890;5.930;2022-08-21T08:13:19;95920.66;;;18.20;54.85
49841;BME280;35738;49.890;5.930;2022-08-21T08:15:46;95913.88;;;18.17;54.31
49841;BME280;35738;49.890;5.930;2022-08-21T08:18:13;95917.63;;;18.32;53.98
49841;BME280;35738;49.890;5.930;2022-08-21T08:20:40;95915.78;;;18.43;54.31
49841;BME280;35738;49.890;5.930;2022-08-21T08:23:10;95913.00;;;18.43;54.43
49841;BME280;35738;49.890;5.930;2022-08-21T08:25:37;95911.81;;;18.44;53.33
49841;BME280;35738;49.890;5.930;2022-08-21T08:28:05;95914.78;;;18.25;54.17
49841;BME280;35738;49.890;5.930;2022-08-21T08:30:44;95912.25;;;18.46;53.88
49841;BME280;35738;49.890;5.930;2022-08-21T08:33:11;95913.50;;;18.52;53.28
49841;BME280;35738;49.890;5.930;2022-08-21T08:35:37;95922.31;;;18.88;53.21
49841;BME280;35738;49.890;5.930;2022-08-21T08:38:05;95915.66;;;18.96;52.52
49841;BME280;35738;49.890;5.930;2022-08-21T08:41:06;95919.47;;;19.21;52.24
49841;BME280;35738;49.890;5.930;2022-08-21T08:43:36;95925.06;;;19.25;51.38
49841;BME280;35738;49.890;5.930;2022-08-21T08:46:13;95919.84;;;19.57;51.00
49841;BME280;35738;49.890;5.930;2022-08-21T08:51:25;95917.97;;;19.31;50.89
49841;BME280;35738;49.890;5.930;2022-08-21T08:54:05;95908.00;;;19.30;51.44
49841;BME280;35738;49.890;5.930;2022-08-21T08:56:35;95916.50;;;19.44;50.69
49841;BME280;35738;49.890;5.930;2022-08-21T08:59:15;95916.31;;;19.67;50.46
49841;BME280;35738;49.890;5.930;2022-08-21T09:01:44;95910.81;;;19.78;49.74
49841;BME280;35738;49.890;5.930;2022-08-21T09:04:11;95911.63;;;19.82;49.12
49841;BME280;35738;49.890;5.930;2022-08-21T09:07:01;95911.81;;;20.07;48.82
49841;BME280;35738;49.890;5.930;2022-08-21T09:09:51;95909.09;;;19.59;49.14
49841;BME280;35738;49.890;5.930;2022-08-21T09:15:52;95905.50;;;20.20;48.01
49841;BME280;35738;49.890;5.930;2022-08-21T09:21:16;95909.75;;;20.00;48.47
49841;BME280;35738;49.890;5.930;2022-08-21T09:26:52;95903.09;;;20.15;46.84
49841;BME280;35738;49.890;5.930;2022-08-21T09:29:24;95906.97;;;20.00;47.41
49841;BME280;35738;49.890;5.930;2022-08-21T09:31:52;95904.69;;;20.13;47.38
49841;BME280;35738;49.890;5.930;2022-08-21T09:34:28;95894.06;;;20.43;45.95
49841;BME280;35738;49.890;5.930;2022-08-21T09:36:56;95893.72;;;20.55;46.67
49841;BME280;35738;49.890;5.930;2022-08-21T09:39:26;95905.56;;;20.31;47.32
49841;BME280;35738;49.890;5.930;2022-08-21T09:41:57;95894.09;;;19.81;48.08
49841;BME280;35738;49.890;5.930;2022-08-21T09:44:28;95898.38;;;20.26;48.00
49841;BME280;35738;49.890;5.930;2022-08-21T09:46:56;95899.69;;;20.47;48.10
49841;BME280;35738;49.890;5.930;2022-08-21T09:49:32;95897.06;;;20.97;46.40
49841;BME280;35738;49.890;5.930;2022-08-21T09:52:02;95893.06;;;20.94;46.28
49841;BME280;35738;49.890;5.930;2022-08-21T09:54:35;95891.06;;;20.87;46.10
49841;BME280;35738;49.890;5.930;2022-08-21T09:59:51;95890.53;;;20.53;46.40
49841;BME280;35738;49.890;5.930;2022-08-21T10:02:44;95886.97;;;20.67;45.59
49841;BME280;35738;49.890;5.930;2022-08-21T10:05:20;95881.88;;;20.94;44.49
49841;BME280;35738;49.890;5.930;2022-08-21T10:07:49;95886.31;;;21.13;44.00
49841;BME280;35738;49.890;5.930;2022-08-21T10:10:23;95879.56;;;21.28;43.58
49841;BME280;35738;49.890;5.930;2022-08-21T10:24:05;95889.78;;;20.71;44.54
49841;BME280;35738;49.890;5.930;2022-08-21T10:29:39;95881.81;;;20.80;44.25
49841;BME280;35738;49.890;5.930;2022-08-21T10:32:43;95871.94;;;21.21;43.16
49841;BME280;35738;49.890;5.930;2022-08-21T10:35:27;95875.97;;;21.74;42.16
49841;BME280;35738;49.890;5.930;2022-08-21T10:49:49;95854.75;;;21.76;42.89
49841;BME280;35738;49.890;5.930;2022-08-21T10:55:22;95863.50;;;20.93;44.37
49841;BME280;35738;49.890;5.930;2022-08-21T11:03:41;95845.19;;;21.31;44.36
49841;BME280;35738;49.890;5.930;2022-08-21T11:06:17;95840.38;;;21.24;44.10
49841;BME280;35738;49.890;5.930;2022-08-21T11:08:48;95841.59;;;21.34;44.35
49841;BME280;35738;49.890;5.930;2022-08-21T11:11:39;95844.78;;;21.50;43.66
49841;BME280;35738;49.890;5.930;2022-08-21T11:17:12;95840.34;;;21.85;43.59
49841;BME280;35738;49.890;5.930;2022-08-21T11:19:53;95846.72;;;22.03;42.48
49841;BME280;35738;49.890;5.930;2022-08-21T11:25:27;95830.72;;;22.07;41.81
49841;BME280;35738;49.890;5.930;2022-08-21T11:28:13;95831.47;;;22.15;41.76
49841;BME280;35738;49.890;5.930;2022-08-21T11:36:54;95830.34;;;21.87;41.76
49841;BME280;35738;49.890;5.930;2022-08-21T11:39:10;95834.25;;;22.22;40.95
49841;BME280;35738;49.890;5.930;2022-08-21T11:41:46;95827.75;;;22.50;40.37
49841;BME280;35738;49.890;5.930;2022-08-21T11:47:06;95840.22;;;22.38;38.48
49841;BME280;35738;49.890;5.930;2022-08-21T11:55:17;95839.09;;;22.00;39.78
49841;BME280;35738;49.890;5.930;2022-08-21T12:02:54;95815.78;;;22.42;38.39
49841;BME280;35738;49.890;5.930;2022-08-21T12:05:42;95823.59;;;22.83;37.51
49841;BME280;35738;49.890;5.930;2022-08-21T12:08:14;95808.22;;;23.05;37.13
49841;BME280;35738;49.890;5.930;2022-08-21T12:10:47;95813.47;;;23.48;36.46
49841;BME280;35738;49.890;5.930;2022-08-21T12:13:30;95805.84;;;23.49;36.51
49841;BME280;35738;49.890;5.930;2022-08-21T12:16:16;95807.56;;;23.84;35.22
49841;BME280;35738;49.890;5.930;2022-08-21T12:19:07;95807.13;;;23.89;35.27
49841;BME280;35738;49.890;5.930;2022-08-21T12:21:48;95796.53;;;23.62;35.82
49841;BME280;35738;49.890;5.930;2022-08-21T12:32:03;95784.31;;;23.38;37.36
49841;BME280;35738;49.890;5.930;2022-08-21T12:34:36;95797.84;;;23.92;35.79
49841;BME280;35738;49.890;5.930;2022-08-21T12:37:17;95789.72;;;23.63;36.13
49841;BME280;35738;49.890;5.930;2022-08-21T12:39:48;95791.22;;;23.71;36.19
49841;BME280;35738;49.890;5.930;2022-08-21T12:42:23;95784.16;;;23.97;36.26
49841;BME280;35738;49.890;5.930;2022-08-21T12:44:53;95789.75;;;24.92;34.70
49841;BME280;35738;49.890;5.930;2022-08-21T12:47:31;95790.16;;;24.33;34.74
49841;BME280;35738;49.890;5.930;2022-08-21T12:50:05;95793.22;;;24.77;34.23
49841;BME280;35738;49.890;5.930;2022-08-21T12:52:54;95790.34;;;25.07;33.25
49841;BME280;35738;49.890;5.930;2022-08-21T12:55:31;95785.94;;;25.33;32.83
49841;BME280;35738;49.890;5.930;2022-08-21T12:57:58;95785.03;;;24.86;32.93
49841;BME280;35738;49.890;5.930;2022-08-21T13:00:27;95788.38;;;24.47;33.88
49841;BME280;35738;49.890;5.930;2022-08-21T13:02:55;95787.25;;;24.40;33.95
49841;BME280;35738;49.890;5.930;2022-08-21T13:05:33;95785.75;;;23.54;35.00
49841;BME280;35738;49.890;5.930;2022-08-21T13:08:04;95789.16;;;23.34;35.74
49841;BME280;35738;49.890;5.930;2022-08-21T13:10:32;95777.38;;;23.50;35.31
49841;BME280;35738;49.890;5.930;2022-08-21T13:13:13;95787.81;;;23.50;35.44
49841;BME280;35738;49.890;5.930;2022-08-21T13:16:03;95794.28;;;23.88;34.75
49841;BME280;35738;49.890;5.930;2022-08-21T13:18:33;95781.13;;;24.15;34.24
49841;BME280;35738;49.890;5.930;2022-08-21T13:21:11;95777.09;;;24.50;33.82
49841;BME280;35738;49.890;5.930;2022-08-21T13:23:38;95776.31;;;24.77;33.56
49841;BME280;35738;49.890;5.930;2022-08-21T13:26:16;95784.13;;;24.92;32.99
49841;BME280;35738;49.890;5.930;2022-08-21T13:28:45;95774.72;;;24.76;33.38
49841;BME280;35738;49.890;5.930;2022-08-21T13:31:23;95765.97;;;25.24;32.78
49841;BME280;35738;49.890;5.930;2022-08-21T13:33:54;95772.31;;;25.05;32.09
49841;BME280;35738;49.890;5.930;2022-08-21T13:36:26;95767.91;;;25.03;32.85
49841;BME280;35738;49.890;5.930;2022-08-21T13:38:55;95776.13;;;24.91;32.62
49841;BME280;35738;49.890;5.930;2022-08-21T13:41:34;95775.06;;;24.81;32.34
49841;BME280;35738;49.890;5.930;2022-08-21T13:44:06;95773.63;;;24.96;32.33
49841;BME280;35738;49.890;5.930;2022-08-21T13:46:47;95760.75;;;25.22;32.46
49841;BME280;35738;49.890;5.930;2022-08-21T13:49:17;95762.19;;;25.34;32.10
49841;BME280;35738;49.890;5.930;2022-08-21T13:51:45;95761.53;;;24.99;32.35
49841;BME280;35738;49.890;5.930;2022-08-21T13:54:23;95773.41;;;24.57;32.89
49841;BME280;35738;49.890;5.930;2022-08-21T13:56:51;95763.84;;;24.78;32.54
49841;BME280;35738;49.890;5.930;2022-08-21T13:59:33;95760.41;;;24.93;32.98
49841;BME280;35738;49.890;5.930;2022-08-21T14:04:33;95754.09;;;24.25;33.74
49841;BME280;35738;49.890;5.930;2022-08-21T14:07:02;95760.13;;;24.27;33.87
49841;BME280;35738;49.890;5.930;2022-08-21T14:09:42;95751.78;;;24.50;33.50
49841;BME280;35738;49.890;5.930;2022-08-21T14:12:29;95757.13;;;24.41;33.44
49841;BME280;35738;49.890;5.930;2022-08-21T14:15:03;95759.88;;;24.45;33.68
49841;BME280;35738;49.890;5.930;2022-08-21T14:17:34;95760.00;;;24.37;34.17
49841;BME280;35738;49.890;5.930;2022-08-21T14:20:05;95754.22;;;24.48;34.21
49841;BME280;35738;49.890;5.930;2022-08-21T14:22:46;95751.00;;;24.16;34.16
49841;BME280;35738;49.890;5.930;2022-08-21T14:27:53;95755.47;;;24.13;34.92
49841;BME280;35738;49.890;5.930;2022-08-21T14:30:27;95749.22;;;24.32;34.07
49841;BME280;35738;49.890;5.930;2022-08-21T14:32:55;95751.94;;;24.39;34.17
49841;BME280;35738;49.890;5.930;2022-08-21T14:35:22;95747.53;;;24.38;34.65
49841;BME280;35738;49.890;5.930;2022-08-21T14:37:50;95749.53;;;24.38;34.58
49841;BME280;35738;49.890;5.930;2022-08-21T14:40:18;95748.41;;;24.32;34.58
49841;BME280;35738;49.890;5.930;2022-08-21T14:42:45;95742.25;;;24.10;35.00
49841;BME280;35738;49.890;5.930;2022-08-21T14:45:27;95753.78;;;24.19;35.14
49841;BME280;35738;49.890;5.930;2022-08-21T14:47:56;95760.72;;;24.11;35.59
49841;BME280;35738;49.890;5.930;2022-08-21T14:50:23;95747.69;;;23.94;36.06